Santa Isabel, Brazil
Current Conditions -  °F | °C
As of 6:00 PM on Saturday 20 Dec 2014 (Local Time) from SBGR Reporting Station
Clear Clear  
Wind Chill: 86°   Ceiling: Unl
Heat Index: 89°   Visibility: 6mi
Dew Point: 68°   Wind: 12mph
Humidity: 55%   Direction: 330°NNW
Pressure: 29.85"   Gusts: NA
Location:  23.32°S, 46.22°W
Report Text: SBGR 202000Z 33010KT CAVOK 30/20 Q1011
Loading
Personal Weather Stations






























Interactive Weather Map New forecast layout! Learn more

10-Day Weather Forecast

Advertisements
Track Severe Weather on mobile